createdAt,value
2022-12-10T00:01:12.030Z,24.33
2022-12-10T00:03:38.666Z,19.77
2022-12-10T00:06:07.667Z,21.52
2022-12-10T00:08:35.205Z,19.45
2022-12-10T00:11:04.785Z,18.05
2022-12-10T00:13:31.819Z,16.10
2022-12-10T00:16:04.506Z,20.20
2022-12-10T00:18:31.189Z,18.73
2022-12-10T00:20:57.706Z,15.80
2022-12-10T00:23:24.203Z,18.63
2022-12-10T00:25:51.176Z,18.27
2022-12-10T00:28:17.788Z,17.50
2022-12-10T00:30:44.314Z,15.35
2022-12-10T00:33:10.808Z,16.65
2022-12-10T00:35:37.788Z,14.93
2022-12-10T00:38:04.695Z,18.35
2022-12-10T00:40:31.175Z,16.83
2022-12-10T00:42:57.686Z,17.33
2022-12-10T00:45:24.151Z,11.93
2022-12-10T00:47:50.666Z,13.48
2022-12-10T00:50:17.228Z,13.38
2022-12-10T00:52:43.704Z,14.65
2022-12-10T00:55:10.211Z,15.05
2022-12-10T00:57:36.832Z,15.05
2022-12-10T01:00:04.312Z,14.43
2022-12-10T01:02:30.843Z,12.80
2022-12-10T01:04:57.464Z,12.38
2022-12-10T01:07:23.986Z,15.40
2022-12-10T01:09:50.490Z,14.88
2022-12-10T01:12:17.032Z,15.50
2022-12-10T01:14:43.498Z,13.50
2022-12-10T01:17:10.002Z,12.45
2022-12-10T01:19:36.540Z,18.60
2022-12-10T01:22:03.937Z,17.90
2022-12-10T01:24:30.740Z,17.55
2022-12-10T01:26:57.951Z,16.55
2022-12-10T01:29:24.867Z,16.80
2022-12-10T01:31:53.396Z,16.35
2022-12-10T01:34:20.499Z,15.48
2022-12-10T01:36:51.198Z,14.93
2022-12-10T01:39:19.153Z,15.18
2022-12-10T01:41:54.918Z,14.93
2022-12-10T01:44:21.424Z,18.42
2022-12-10T01:46:51.056Z,14.68
2022-12-10T01:49:23.335Z,11.88
2022-12-10T01:51:52.594Z,13.07
2022-12-10T01:54:28.364Z,11.93
2022-12-10T01:57:04.468Z,16.10
2022-12-10T01:59:32.314Z,14.57
2022-12-10T02:02:13.688Z,13.43
2022-12-10T02:04:46.322Z,15.77
2022-12-10T02:07:37.352Z,14.30
2022-12-10T02:10:03.803Z,15.70
2022-12-10T02:12:44.517Z,15.10
2022-12-10T02:15:15.811Z,10.55
2022-12-10T02:17:58.968Z,13.27
2022-12-10T02:20:32.763Z,15.23
2022-12-10T06:25:41.531Z,11.52
2022-12-10T06:28:08.745Z,7.70
2022-12-10T06:30:36.304Z,7.38
2022-12-10T06:33:02.836Z,7.50
2022-12-10T06:35:29.556Z,7.60
2022-12-10T06:37:56.070Z,7.25
2022-12-10T06:40:22.614Z,8.00
2022-12-10T06:42:51.990Z,8.20
2022-12-10T06:45:18.582Z,9.05
2022-12-10T06:47:45.084Z,5.78
2022-12-10T06:50:11.679Z,9.02
2022-12-10T06:52:38.242Z,8.75
2022-12-10T06:55:05.100Z,10.00
2022-12-10T06:57:31.594Z,8.82
2022-12-10T06:59:58.139Z,9.73
2022-12-10T07:02:24.840Z,8.15
2022-12-10T07:04:51.424Z,9.15
2022-12-10T07:07:17.958Z,10.80
2022-12-10T07:09:44.550Z,9.07
2022-12-10T07:12:11.024Z,8.20
2022-12-10T12:33:33.732Z,13.82
2022-12-10T12:36:08.058Z,14.77
2022-12-10T12:38:56.891Z,15.63
2022-12-10T12:41:47.948Z,11.95
2022-12-10T12:44:54.716Z,12.35
2022-12-10T12:47:40.892Z,11.77
2022-12-10T12:50:24.989Z,13.00
2022-12-10T12:53:00.615Z,11.57
2022-12-10T12:55:38.788Z,11.25
2022-12-10T12:58:25.913Z,8.95
2022-12-10T13:00:58.090Z,13.27
2022-12-10T13:03:37.086Z,12.35
2022-12-10T13:06:19.950Z,15.27
2022-12-10T13:09:13.552Z,10.10
2022-12-10T13:11:44.030Z,11.60
2022-12-10T13:14:10.824Z,12.68
2022-12-10T13:16:46.240Z,10.75
2022-12-10T15:37:41.741Z,17.67
2022-12-10T15:40:24.262Z,16.77
2022-12-10T15:42:51.347Z,33.28
2022-12-10T15:45:23.144Z,23.42
2022-12-10T15:47:50.805Z,22.25
2022-12-10T15:50:18.782Z,26.75
2022-12-10T15:52:45.924Z,31.52
2022-12-10T15:55:14.769Z,42.22
2022-12-10T15:57:50.264Z,39.88
2022-12-10T16:00:27.595Z,28.55
2022-12-10T16:02:58.425Z,27.92
2022-12-10T16:05:27.900Z,33.15
2022-12-10T16:07:56.675Z,26.00
2022-12-10T16:10:26.819Z,18.30
2022-12-10T16:13:04.001Z,14.35
2022-12-10T16:15:42.319Z,15.00
2022-12-10T16:18:11.828Z,19.10
2022-12-10T16:20:38.493Z,50.25
2022-12-10T16:26:51.883Z,28.33
2022-12-10T16:29:21.334Z,24.65
2022-12-10T16:31:48.335Z,21.10
2022-12-10T16:34:15.153Z,19.33
2022-12-10T16:36:41.801Z,18.42
2022-12-10T16:39:08.478Z,23.50
2022-12-10T16:41:35.189Z,22.67
2022-12-10T16:44:02.004Z,23.35
2022-12-10T16:46:28.543Z,20.35
2022-12-10T16:48:55.136Z,19.95
2022-12-10T16:51:31.664Z,17.67
2022-12-10T16:53:58.786Z,22.63
2022-12-10T16:56:25.317Z,25.33
2022-12-10T16:58:52.072Z,21.50
2022-12-10T17:01:22.497Z,22.95
2022-12-10T17:03:51.169Z,20.98
2022-12-10T17:06:18.734Z,22.75
2022-12-10T17:08:45.735Z,30.33
2022-12-10T17:11:48.398Z,35.20
2022-12-10T17:14:22.814Z,34.25
2022-12-10T17:16:50.817Z,34.97
2022-12-10T17:19:17.750Z,35.38
2022-12-10T17:21:44.491Z,37.47
2022-12-10T17:24:11.058Z,31.35
2022-12-10T17:26:40.981Z,26.10
2022-12-10T17:29:12.702Z,25.23
2022-12-10T17:31:40.365Z,29.48
2022-12-10T17:34:08.224Z,25.08
2022-12-10T17:36:35.222Z,32.25
2022-12-10T17:39:01.779Z,27.40
2022-12-10T17:41:28.728Z,26.02
2022-12-10T17:43:55.890Z,26.35
2022-12-10T17:46:25.871Z,24.38
2022-12-10T17:48:53.959Z,25.52
2022-12-10T17:51:20.855Z,26.23
2022-12-10T17:53:47.372Z,20.23
2022-12-10T17:56:17.616Z,22.58
2022-12-10T17:58:44.928Z,36.63
2022-12-10T18:01:11.738Z,31.20
2022-12-10T19:08:34.465Z,40.65
2022-12-10T19:11:11.529Z,48.95
2022-12-10T19:13:40.451Z,45.78
2022-12-10T19:16:14.045Z,35.17
2022-12-10T19:18:40.723Z,41.67
2022-12-10T19:21:08.488Z,39.38
2022-12-10T19:23:35.355Z,38.97
2022-12-10T19:26:02.644Z,32.55
2022-12-10T19:28:29.208Z,35.92
2022-12-10T19:30:55.775Z,34.80
2022-12-10T19:33:23.063Z,47.08
2022-12-10T19:35:49.874Z,43.03
2022-12-10T19:38:16.804Z,39.85
2022-12-10T19:40:43.420Z,46.72
2022-12-10T19:43:14.137Z,34.47
2022-12-10T19:45:41.068Z,40.25
2022-12-10T19:48:10.002Z,49.70
2022-12-10T19:50:36.667Z,47.22
2022-12-10T19:53:04.684Z,39.90
2022-12-10T19:55:31.809Z,42.20
2022-12-10T19:57:58.323Z,42.50
2022-12-10T20:00:33.387Z,46.67
2022-12-10T20:03:00.546Z,38.57
2022-12-10T20:05:27.372Z,38.08
2022-12-10T20:07:54.142Z,37.05
2022-12-10T20:10:27.032Z,35.45
2022-12-10T20:12:53.839Z,40.50
2022-12-10T20:15:23.262Z,38.67
2022-12-10T20:17:50.365Z,51.03
2022-12-10T20:20:21.229Z,49.05
2022-12-10T20:22:48.118Z,44.80
2022-12-10T20:25:15.795Z,38.15
2022-12-10T20:27:43.232Z,46.15
2022-12-10T20:30:18.322Z,42.33
2022-12-10T20:32:44.936Z,52.17
2022-12-10T20:35:17.082Z,46.45
2022-12-10T20:37:43.643Z,48.30
2022-12-10T20:40:33.354Z,44.22
2022-12-10T20:43:01.114Z,38.90
2022-12-10T20:45:28.147Z,34.22
2022-12-10T20:47:54.738Z,26.77
2022-12-10T20:50:22.000Z,23.08
2022-12-10T20:52:49.125Z,23.92
2022-12-10T20:55:16.236Z,31.77
2022-12-10T20:57:43.117Z,39.92
2022-12-10T21:00:16.723Z,35.13
2022-12-10T21:02:43.511Z,33.47
2022-12-10T21:05:10.740Z,27.88
2022-12-10T21:07:37.650Z,28.02
